sensor_id;sensor_type;location;lat;lon;timestamp;pressure;altitude;pressure_sealevel;temperature;humidity
929;BME280;451;47.988;7.842;2023-04-22T00:04:59;97774.59;;;11.37;94.40
929;BME280;451;47.988;7.842;2023-04-22T00:14:02;97795.44;;;11.38;96.10
929;BME280;451;47.988;7.842;2023-04-22T00:23:07;97791.81;;;11.39;95.97
929;BME280;451;47.988;7.842;2023-04-22T00:32:10;97802.69;;;11.08;98.22
929;BME280;451;47.988;7.842;2023-04-22T00:41:15;97783.09;;;10.68;100.00
929;BME280;451;47.988;7.842;2023-04-22T00:50:18;97784.75;;;10.48;100.00
929;BME280;451;47.988;7.842;2023-04-22T00:59:23;97789.94;;;10.63;100.00
929;BME280;451;47.988;7.842;2023-04-22T01:08:27;97787.22;;;10.35;100.00
929;BME280;451;47.988;7.842;2023-04-22T01:17:32;97719.06;;;9.61;100.00
929;BME280;451;47.988;7.842;2023-04-22T01:26:37;97748.81;;;10.34;100.00
929;BME280;451;47.988;7.842;2023-04-22T01:35:40;97854.09;;;9.74;100.00
929;BME280;451;47.988;7.842;2023-04-22T01:44:45;97779.31;;;9.55;100.00
929;BME280;451;47.988;7.842;2023-04-22T01:53:49;97841.81;;;9.51;100.00
929;BME280;451;47.988;7.842;2023-04-22T02:02:53;97805.47;;;9.63;100.00
929;BME280;451;47.988;7.842;2023-04-22T02:11:56;97818.22;;;9.66;100.00
929;BME280;451;47.988;7.842;2023-04-22T02:21:01;97815.84;;;9.42;100.00
929;BME280;451;47.988;7.842;2023-04-22T02:30:06;97744.41;;;8.87;100.00
929;BME280;451;47.988;7.842;2023-04-22T02:39:10;97846.19;;;9.21;100.00
929;BME280;451;47.988;7.842;2023-04-22T02:48:13;97853.78;;;9.16;100.00
929;BME280;451;47.988;7.842;2023-04-22T02:57:18;97873.09;;;9.38;100.00
929;BME280;451;47.988;7.842;2023-04-22T03:06:21;97839.03;;;9.15;100.00
929;BME280;451;47.988;7.842;2023-04-22T03:15:26;97846.03;;;9.00;100.00
929;BME280;451;47.988;7.842;2023-04-22T03:24:32;97835.38;;;9.02;100.00
929;BME280;451;47.988;7.842;2023-04-22T03:33:42;97835.09;;;8.74;100.00
929;BME280;451;47.988;7.842;2023-04-22T03:42:55;97830.19;;;9.16;100.00
929;BME280;451;47.988;7.842;2023-04-22T03:52:00;97802.13;;;8.57;100.00
929;BME280;451;47.988;7.842;2023-04-22T04:01:04;97803.94;;;8.79;100.00
929;BME280;451;47.988;7.842;2023-04-22T04:10:10;97780.16;;;9.03;100.00
929;BME280;451;47.988;7.842;2023-04-22T04:19:14;97788.78;;;9.26;100.00
929;BME280;451;47.988;7.842;2023-04-22T04:28:20;97817.56;;;9.35;100.00
929;BME280;451;47.988;7.842;2023-04-22T04:37:24;97805.81;;;9.30;100.00
929;BME280;451;47.988;7.842;2023-04-22T04:46:36;97812.66;;;9.31;100.00
929;BME280;451;47.988;7.842;2023-04-22T04:55:40;97777.50;;;9.41;98.61
929;BME280;451;47.988;7.842;2023-04-22T05:04:52;97683.88;;;9.26;94.07
929;BME280;451;47.988;7.842;2023-04-22T05:13:55;97806.09;;;10.24;91.59
929;BME280;451;47.988;7.842;2023-04-22T05:23:06;97814.13;;;10.37;89.94
929;BME280;451;47.988;7.842;2023-04-22T05:32:09;97828.50;;;10.77;90.39
929;BME280;451;47.988;7.842;2023-04-22T05:41:14;97813.72;;;10.97;86.37
929;BME280;451;47.988;7.842;2023-04-22T05:50:17;97813.25;;;11.36;84.34
929;BME280;451;47.988;7.842;2023-04-22T05:59:31;97834.97;;;12.07;83.75
929;BME280;451;47.988;7.842;2023-04-22T06:08:35;97839.59;;;12.39;84.65
929;BME280;451;47.988;7.842;2023-04-22T06:17:39;97770.53;;;12.77;81.91
929;BME280;451;47.988;7.842;2023-04-22T06:26:43;97859.59;;;12.81;81.67
929;BME280;451;47.988;7.842;2023-04-22T06:35:48;97845.16;;;12.71;82.61
929;BME280;451;47.988;7.842;2023-04-22T06:44:51;97831.63;;;13.00;79.94
929;BME280;451;47.988;7.842;2023-04-22T06:54:08;97852.41;;;13.43;77.34
929;BME280;451;47.988;7.842;2023-04-22T07:03:11;97875.34;;;13.75;78.33
929;BME280;451;47.988;7.842;2023-04-22T07:12:16;97865.19;;;13.85;78.65
929;BME280;451;47.988;7.842;2023-04-22T07:21:19;97882.22;;;14.02;78.73
929;BME280;451;47.988;7.842;2023-04-22T07:30:25;97850.72;;;13.94;77.81
929;BME280;451;47.988;7.842;2023-04-22T07:39:28;97868.09;;;14.92;72.42
929;BME280;451;47.988;7.842;2023-04-22T07:48:32;97805.97;;;15.20;70.44
929;BME280;451;47.988;7.842;2023-04-22T07:57:36;97858.31;;;15.99;65.18
929;BME280;451;47.988;7.842;2023-04-22T08:06:42;97841.47;;;16.78;63.56
929;BME280;451;47.988;7.842;2023-04-22T08:15:45;97822.16;;;16.71;63.41
929;BME280;451;47.988;7.842;2023-04-22T08:24:49;97770.09;;;16.70;62.47
929;BME280;451;47.988;7.842;2023-04-22T08:33:52;97815.69;;;17.73;59.88
929;BME280;451;47.988;7.842;2023-04-22T08:42:57;97810.19;;;18.66;58.93
929;BME280;451;47.988;7.842;2023-04-22T08:52:00;97771.44;;;19.04;56.06
929;BME280;451;47.988;7.842;2023-04-22T09:01:06;97792.28;;;19.73;54.47
929;BME280;451;47.988;7.842;2023-04-22T09:10:09;97815.19;;;20.51;52.78
929;BME280;451;47.988;7.842;2023-04-22T09:19:15;97794.50;;;20.64;54.44
929;BME280;451;47.988;7.842;2023-04-22T09:28:19;97779.59;;;21.26;52.21
929;BME280;451;47.988;7.842;2023-04-22T09:37:24;97793.84;;;23.24;47.69
929;BME280;451;47.988;7.842;2023-04-22T09:46:29;97774.56;;;23.57;45.84
929;BME280;451;47.988;7.842;2023-04-22T09:55:35;97809.81;;;22.68;46.34
929;BME280;451;47.988;7.842;2023-04-22T10:04:38;97774.97;;;22.48;45.47
929;BME280;451;47.988;7.842;2023-04-22T10:13:44;97792.66;;;22.59;44.84
929;BME280;451;47.988;7.842;2023-04-22T10:22:47;97770.00;;;22.92;43.28
929;BME280;451;47.988;7.842;2023-04-22T10:32:02;97773.25;;;24.39;42.04
929;BME280;451;47.988;7.842;2023-04-22T10:41:11;97771.28;;;23.91;41.77
929;BME280;451;47.988;7.842;2023-04-22T10:50:20;97769.97;;;23.73;42.08
929;BME280;451;47.988;7.842;2023-04-22T10:59:24;97764.56;;;22.67;46.86
929;BME280;451;47.988;7.842;2023-04-22T11:08:29;97798.16;;;22.22;53.54
929;BME280;451;47.988;7.842;2023-04-22T11:17:32;97764.53;;;21.15;51.85
929;BME280;451;47.988;7.842;2023-04-22T11:26:36;97786.56;;;22.74;47.57
929;BME280;451;47.988;7.842;2023-04-22T11:35:41;97785.56;;;23.61;47.00
929;BME280;451;47.988;7.842;2023-04-22T11:44:46;97754.50;;;24.24;42.36
929;BME280;451;47.988;7.842;2023-04-22T11:53:49;97776.09;;;23.89;42.72
929;BME280;451;47.988;7.842;2023-04-22T12:02:59;97765.56;;;24.07;43.25
929;BME280;451;47.988;7.842;2023-04-22T12:12:02;97755.75;;;23.37;43.68
929;BME280;451;47.988;7.842;2023-04-22T12:21:09;97818.00;;;23.39;45.39
929;BME280;451;47.988;7.842;2023-04-22T12:30:14;97774.13;;;24.74;42.08
929;BME280;451;47.988;7.842;2023-04-22T12:39:20;97682.88;;;25.21;40.08
929;BME280;451;47.988;7.842;2023-04-22T12:48:23;97774.03;;;24.94;40.83
929;BME280;451;47.988;7.842;2023-04-22T12:57:27;97767.06;;;25.61;40.25
929;BME280;451;47.988;7.842;2023-04-22T13:06:30;97775.31;;;25.93;38.62
929;BME280;451;47.988;7.842;2023-04-22T13:15:35;97785.44;;;26.06;38.57
929;BME280;451;47.988;7.842;2023-04-22T13:24:39;97788.38;;;25.52;40.04
929;BME280;451;47.988;7.842;2023-04-22T13:33:43;97798.84;;;25.59;39.16
929;BME280;451;47.988;7.842;2023-04-22T13:42:48;97764.59;;;25.64;39.66
929;BME280;451;47.988;7.842;2023-04-22T13:51:52;97706.81;;;25.99;39.31
929;BME280;451;47.988;7.842;2023-04-22T14:00:55;97658.72;;;25.16;40.38
929;BME280;451;47.988;7.842;2023-04-22T14:10:00;97761.94;;;24.86;40.39
929;BME280;451;47.988;7.842;2023-04-22T14:19:03;97698.78;;;23.81;42.21
929;BME280;451;47.988;7.842;2023-04-22T14:28:08;97775.09;;;23.34;43.08
929;BME280;451;47.988;7.842;2023-04-22T14:37:12;97749.59;;;23.67;42.55
929;BME280;451;47.988;7.842;2023-04-22T14:46:17;97754.16;;;23.66;42.21
929;BME280;451;47.988;7.842;2023-04-22T14:55:20;97696.00;;;22.86;44.29
929;BME280;451;47.988;7.842;2023-04-22T15:04:25;97771.09;;;22.19;46.01
929;BME280;451;47.988;7.842;2023-04-22T15:13:28;97797.28;;;20.74;50.64
929;BME280;451;47.988;7.842;2023-04-22T15:22:32;97808.63;;;19.99;55.54
929;BME280;451;47.988;7.842;2023-04-22T15:31:35;97833.38;;;18.82;67.33
929;BME280;451;47.988;7.842;2023-04-22T15:40:40;97871.69;;;18.53;71.55
929;BME280;451;47.988;7.842;2023-04-22T15:49:43;97884.09;;;18.24;68.72
929;BME280;451;47.988;7.842;2023-04-22T15:58:47;97862.31;;;18.39;65.48
929;BME280;451;47.988;7.842;2023-04-22T16:07:50;97871.34;;;18.89;63.89
929;BME280;451;47.988;7.842;2023-04-22T16:16:55;97873.56;;;18.41;63.65
929;BME280;451;47.988;7.842;2023-04-22T16:25:58;97859.09;;;18.48;61.97
929;BME280;451;47.988;7.842;2023-04-22T16:35:05;97891.47;;;18.45;62.30
929;BME280;451;47.988;7.842;2023-04-22T16:44:09;97877.59;;;18.32;61.81
929;BME280;451;47.988;7.842;2023-04-22T16:53:13;97898.75;;;18.73;61.90
929;BME280;451;47.988;7.842;2023-04-22T17:02:16;97911.88;;;18.28;62.35
929;BME280;451;47.988;7.842;2023-04-22T17:11:21;97886.44;;;17.97;61.40
929;BME280;451;47.988;7.842;2023-04-22T17:20:25;97859.72;;;17.69;61.27
929;BME280;451;47.988;7.842;2023-04-22T17:29:29;97872.78;;;18.05;61.73
929;BME280;451;47.988;7.842;2023-04-22T17:38:33;97911.91;;;18.05;63.48
929;BME280;451;47.988;7.842;2023-04-22T17:47:37;97897.84;;;17.63;65.07
929;BME280;451;47.988;7.842;2023-04-22T17:56:40;97903.75;;;17.23;72.48
929;BME280;451;47.988;7.842;2023-04-22T18:05:45;97862.78;;;16.53;78.88
929;BME280;451;47.988;7.842;2023-04-22T18:14:47;97901.31;;;17.22;82.36
929;BME280;451;47.988;7.842;2023-04-22T18:23:52;97913.16;;;16.78;78.93
929;BME280;451;47.988;7.842;2023-04-22T18:32:55;97916.28;;;15.89;83.64
929;BME280;451;47.988;7.842;2023-04-22T18:41:59;97859.03;;;15.63;76.66
929;BME280;451;47.988;7.842;2023-04-22T18:51:03;97917.91;;;15.90;74.77
929;BME280;451;47.988;7.842;2023-04-22T19:00:08;97935.03;;;16.12;74.06
929;BME280;451;47.988;7.842;2023-04-22T19:09:13;97939.31;;;16.13;73.30
929;BME280;451;47.988;7.842;2023-04-22T19:18:17;97933.88;;;15.83;74.32
929;BME280;451;47.988;7.842;2023-04-22T19:27:20;97919.31;;;16.17;71.41
929;BME280;451;47.988;7.842;2023-04-22T19:36:24;97930.72;;;16.18;71.29
929;BME280;451;47.988;7.842;2023-04-22T19:45:28;97937.09;;;15.92;70.71
929;BME280;451;47.988;7.842;2023-04-22T19:54:33;97911.81;;;15.64;70.25
929;BME280;451;47.988;7.842;2023-04-22T20:03:37;97934.84;;;15.64;71.17
929;BME280;451;47.988;7.842;2023-04-22T20:12:43;97899.50;;;15.45;71.05
929;BME280;451;47.988;7.842;2023-04-22T20:21:47;97957.94;;;15.82;71.64
929;BME280;451;47.988;7.842;2023-04-22T20:30:51;97951.28;;;15.41;73.94
929;BME280;451;47.988;7.842;2023-04-22T20:39:55;97958.38;;;15.16;76.32
929;BME280;451;47.988;7.842;2023-04-22T20:49:01;97960.00;;;15.17;77.79
929;BME280;451;47.988;7.842;2023-04-22T20:58:05;97955.59;;;14.98;79.17
929;BME280;451;47.988;7.842;2023-04-22T21:07:11;97939.63;;;15.17;79.22
929;BME280;451;47.988;7.842;2023-04-22T21:16:17;97900.38;;;14.63;80.71
929;BME280;451;47.988;7.842;2023-04-22T21:25:22;97947.69;;;14.91;81.55
929;BME280;451;47.988;7.842;2023-04-22T21:34:26;97934.53;;;14.71;82.22
929;BME280;451;47.988;7.842;2023-04-22T21:43:30;97950.22;;;14.66;84.60
929;BME280;451;47.988;7.842;2023-04-22T21:52:33;97966.34;;;14.45;86.88
929;BME280;451;47.988;7.842;2023-04-22T22:01:37;97991.16;;;14.50;87.54
929;BME280;451;47.988;7.842;2023-04-22T22:10:41;97997.19;;;14.77;87.51
929;BME280;451;47.988;7.842;2023-04-22T22:19:45;97974.47;;;14.50;88.22
929;BME280;451;47.988;7.842;2023-04-22T22:28:49;97997.66;;;14.61;88.17
929;BME280;451;47.988;7.842;2023-04-22T22:37:53;98006.00;;;14.58;89.38
929;BME280;451;47.988;7.842;2023-04-22T22:46:56;97976.13;;;14.25;92.02
929;BME280;451;47.988;7.842;2023-04-22T22:56:00;97982.63;;;14.29;93.77
929;BME280;451;47.988;7.842;2023-04-22T23:05:05;98002.16;;;14.47;94.81
929;BME280;451;47.988;7.842;2023-04-22T23:14:10;97852.97;;;13.05;100.00
929;BME280;451;47.988;7.842;2023-04-22T23:23:14;98016.78;;;13.84;100.00
929;BME280;451;47.988;7.842;2023-04-22T23:32:20;98012.72;;;14.01;100.00
929;BME280;451;47.988;7.842;2023-04-22T23:41:23;98000.94;;;13.84;100.00
929;BME280;451;47.988;7.842;2023-04-22T23:50:27;97966.97;;;13.68;100.00
929;BME280;451;47.988;7.842;2023-04-22T23:59:32;97991.19;;;14.04;100.00
